< < Back
Terminal Aerodrome Forecast


Current Version              Previous Versions:   1  2  3  4  5  6  7  8  9  

Terminal Aerodrome Forecast

074
FTUS42 KTAE 262340
TAFTLH
TAF
KTLH 262340Z 2700/2724 34014KT P6SM -TSRA VCTS BKN015CB OVC090
     FM270300 11003KT P6SM BKN250
     FM271100 10004KT P6SM SCT020 BKN050
     FM271500 13005KT P6SM VCTS BKN040CB
      TEMPO 2716/2720 VRB25KT 4SM TSRA BKN035CB=



Latest METAR

534
SAUS80 KWBC 271600 RRA
MTRTLH
METAR KTLH 271553Z 10008KT 10SM BKN024 BKN250 29/22 A3019 RMK AO2 SLP223
T02940217


USA.gov is the U.S. government's official web portal to all federal, state and local government web resources and services.